CheckWX is a tool to help pilots better visualize weather data.  It is not intended as a substitute for an official pre-flight weather briefing.

16:28:52 UTC

FGSL TAF
Malabo Airport
Malabo, Equatorial Guinea
TAF FGSL 161100Z 1612/1718 24008KT 9999 SCT010 TEMPO 1612/1617 BKN008 FEW020CB TEMPO 1700/1708 4500 RADZ BKN008 FEW018CB

Sep-16@
12:00 UTC

Sep-16 @ 12:00 UTC

Sep-17@
18:00 UTC

Sep-17 @ 18:00 UTC

TAF FGSL 161100Z 1612/1718 24008KT 9999 SCT010
Wind
  • 240° at 8 KTS
Cloud Levels
  • Scattered at 1,000' AGL

Sep-16@
12:00 UTC

Sep-16 @ 12:00 UTC

Sep-16@
17:00 UTC

Sep-16 @ 17:00 UTC

TEMPO 1612/1617 BKN008 FEW020CB

Temporary

Temporary Changes expected for less than half the time period

Cloud Levels
  • Broken at 800' AGL
  • Few at 2,000' AGL

Sep-17@
00:00 UTC

Sep-17 @ 00:00 UTC

Sep-17@
08:00 UTC

Sep-17 @ 08:00 UTC

TEMPO 1700/1708 4500 RADZ BKN008 FEW018CB

Temporary

Temporary Changes expected for less than half the time period

Conditions
Rain, Drizzle
Cloud Levels
  • Broken at 800' AGL
  • Few at 1,800' AGL